Time;durP1;ratioP1;P1;durP2;ratioP2;P2;SDS_P1;SDS_P2;PMS_P1;PMS_P2;Temp;Humidity;BMP_temperature;BMP_pressure;BME280_temperature;BME280_humidity;BME280_pressure;Samples;Min_cycle;Max_cycle;Signal;HPM_P1;HPM_P2
2021/04/26 00:02:22;;;;;;;1.43;0.70;;;;;;;0.88;54.63;101723.92;115791;1208;64272;-77
2021/04/26 00:04:49;;;;;;;1.50;0.80;;;;;;;0.84;55.53;101719.80;115778;1209;62309;-77
2021/04/26 00:07:15;;;;;;;1.37;0.80;;;;;;;0.79;56.23;101716.62;115800;1209;62479;-78
2021/04/26 00:09:42;;;;;;;1.03;0.50;;;;;;;0.74;56.73;101718.63;115771;1209;62511;-78
2021/04/26 00:12:11;;;;;;;2.10;0.80;;;;;;;0.67;56.81;101718.13;115748;1209;62489;-78
2021/04/26 00:14:37;;;;;;;8.17;1.00;;;;;;;0.61;57.59;101708.03;115744;1209;62300;-77
2021/04/26 00:17:04;;;;;;;2.63;0.90;;;;;;;0.53;57.57;101713.70;115796;1209;63159;-78
2021/04/26 00:19:31;;;;;;;2.37;0.90;;;;;;;0.48;58.14;101714.86;115743;1209;62286;-78
2021/04/26 00:21:58;;;;;;;1.75;0.80;;;;;;;0.41;58.00;101711.75;115792;1209;62780;-77
2021/04/26 00:24:24;;;;;;;0.83;0.60;;;;;;;0.39;58.67;101709.22;115830;1209;62923;-77
2021/04/26 00:26:51;;;;;;;1.20;0.80;;;;;;;0.36;58.23;101714.62;115794;1209;62282;-78
2021/04/26 00:29:17;;;;;;;3.63;0.70;;;;;;;0.34;58.52;101720.83;115763;1209;62800;-77
2021/04/26 00:31:44;;;;;;;2.45;1.00;;;;;;;0.31;58.79;101715.78;115800;1209;62322;-77
2021/04/26 00:34:11;;;;;;;3.00;1.40;;;;;;;0.27;58.97;101709.88;115820;1209;62291;-77
2021/04/26 00:36:38;;;;;;;3.55;1.25;;;;;;;0.22;59.58;101706.69;115733;1209;62216;-77
2021/04/26 00:39:05;;;;;;;2.30;0.70;;;;;;;0.19;60.04;101706.84;115739;1209;62572;-78
2021/04/26 00:41:31;;;;;;;1.90;1.10;;;;;;;0.14;60.55;101701.03;115811;1209;62455;-78
2021/04/26 00:43:58;;;;;;;4.47;2.20;;;;;;;0.11;60.29;101698.61;115772;1209;62734;-78
2021/04/26 00:46:24;;;;;;;2.17;1.40;;;;;;;0.08;60.39;101706.58;115790;1209;62531;-78
2021/04/26 00:48:51;;;;;;;2.40;1.20;;;;;;;0.06;60.48;101700.60;115769;1209;62701;-78
2021/04/26 00:51:18;;;;;;;7.03;0.90;;;;;;;0.01;60.88;101698.25;115798;1209;62897;-77
2021/04/26 00:53:45;;;;;;;1.80;0.80;;;;;;;-0.02;60.76;101696.66;115792;1209;62335;-77
2021/04/26 00:56:11;;;;;;;1.57;0.80;;;;;;;-0.05;61.01;101694.19;115808;1209;62719;-78
2021/04/26 00:58:38;;;;;;;1.87;1.17;;;;;;;-0.12;61.22;101698.06;115755;1209;63147;-78
2021/04/26 01:01:08;;;;;;;2.55;0.80;;;;;;;-0.19;60.87;101701.92;115804;1209;62762;-78
2021/04/26 01:03:36;;;;;;;2.73;0.87;;;;;;;-0.24;61.01;101704.75;115685;1209;62265;-78
2021/04/26 01:06:06;;;;;;;6.10;1.10;;;;;;;-0.28;61.83;101702.38;115839;1209;62407;-78
2021/04/26 01:08:32;;;;;;;3.13;1.30;;;;;;;-0.31;62.38;101707.77;115718;1209;62728;-78
2021/04/26 01:11:00;;;;;;;6.43;1.00;;;;;;;-0.33;62.19;101701.79;115785;1209;62102;-78
2021/04/26 01:13:37;;;;;;;2.57;1.03;;;;;;;-0.34;61.69;101700.09;115765;1209;62415;-79
2021/04/26 01:16:09;;;;;;;1.00;0.83;;;;;;;-0.38;61.96;101698.56;115776;1209;62677;-78
2021/04/26 01:18:48;;;;;;;2.25;1.30;;;;;;;-0.41;61.29;101696.96;115799;1209;62719;-78
2021/04/26 01:21:33;;;;;;;2.05;1.00;;;;;;;-0.44;62.06;101703.19;115771;1209;62691;-79
2021/04/26 01:24:35;;;;;;;1.83;1.33;;;;;;;-0.47;62.49;101705.09;115807;1209;62359;-78
2021/04/26 01:27:47;;;;;;;2.37;1.33;;;;;;;-0.50;62.62;101698.28;115763;1208;62459;-79
2021/04/26 01:30:16;;;;;;;1.60;0.95;;;;;;;-0.57;62.56;101696.92;115664;1209;62453;-79
2021/04/26 01:32:53;;;;;;;3.10;0.90;;;;;;;-0.57;63.18;101691.71;115815;1209;63049;-79
2021/04/26 01:35:22;;;;;;;1.97;0.83;;;;;;;-0.58;62.70;101690.01;115792;1208;62471;-78
2021/04/26 01:37:54;;;;;;;2.47;1.00;;;;;;;-0.60;63.38;101686.64;115780;1208;62548;-78
2021/04/26 01:40:23;;;;;;;1.33;0.80;;;;;;;-0.63;62.50;101689.41;115828;1209;63041;-79
2021/04/26 01:42:54;;;;;;;3.20;0.93;;;;;;;-0.64;63.16;101680.77;115739;1209;62673;-77
2021/04/26 01:45:23;;;;;;;1.70;0.90;;;;;;;-0.63;63.42;101684.20;115745;1209;62468;-78
2021/04/26 01:47:58;;;;;;;1.70;0.90;;;;;;;-0.63;63.90;101681.59;115738;1209;62685;-78
2021/04/26 01:50:26;;;;;;;;;;;;;;;-0.64;64.02;101677.29;115841;1216;63005;-78
2021/04/26 01:52:52;;;;;;;5.00;0.90;;;;;;;-0.63;64.10;101684.20;115800;1209;63221;-78
2021/04/26 01:55:23;;;;;;;0.97;0.60;;;;;;;-0.63;64.53;101692.02;115715;1209;62815;-77
2021/04/26 01:57:51;;;;;;;5.53;1.17;;;;;;;-0.65;64.50;101684.27;115764;1209;62421;-78
2021/04/26 02:00:25;;;;;;;2.33;1.10;;;;;;;-0.65;64.06;101683.44;115791;1209;62746;-77
2021/04/26 02:02:54;;;;;;;1.45;0.70;;;;;;;-0.66;64.16;101686.95;115747;1209;62447;-78
2021/04/26 02:05:21;;;;;;;2.30;1.23;;;;;;;-0.70;64.27;101688.02;115713;1209;62977;-78
2021/04/26 02:07:50;;;;;;;1.80;0.85;;;;;;;-0.74;65.07;101683.91;115734;1209;62299;-78
2021/04/26 02:10:19;;;;;;;2.53;0.90;;;;;;;-0.78;65.64;101692.80;115773;1209;62036;-78
2021/04/26 02:12:47;;;;;;;1.90;0.70;;;;;;;-0.80;66.05;101684.22;115777;1209;62529;-77
2021/04/26 02:15:18;;;;;;;1.63;1.03;;;;;;;-0.82;65.88;101682.52;115768;1211;63028;-78
2021/04/26 02:17:46;;;;;;;2.00;1.20;;;;;;;-0.84;65.82;101678.31;115760;1209;62987;-78
2021/04/26 02:20:16;;;;;;;2.15;1.10;;;;;;;-0.88;66.25;101672.41;115775;1209;62399;-78
2021/04/26 02:22:47;;;;;;;2.50;1.20;;;;;;;-0.91;66.17;101677.78;115773;1209;62282;-78
2021/04/26 02:25:14;;;;;;;3.60;1.47;;;;;;;-0.96;65.95;101674.55;115775;1209;62428;-77
2021/04/26 02:27:41;;;;;;;4.03;0.93;;;;;;;-1.01;65.29;101668.73;115771;1209;62377;-77
2021/04/26 02:30:09;;;;;;;5.13;0.90;;;;;;;-1.07;65.04;101666.42;115709;1209;63339;-77
2021/04/26 02:33:12;;;;;;;3.60;0.90;;;;;;;-1.13;65.20;101672.77;115792;1211;62480;-77
2021/04/26 02:36:13;;;;;;;2.20;0.80;;;;;;;-1.16;65.65;101667.73;115620;1209;62633;-78
2021/04/26 02:38:45;;;;;;;4.05;1.05;;;;;;;-1.17;65.52;101660.85;115684;1212;62459;-78
2021/04/26 02:41:19;;;;;;;2.27;1.03;;;;;;;-1.19;65.37;101664.42;115824;1209;62994;-77
2021/04/26 02:43:53;;;;;;;2.13;0.80;;;;;;;-1.24;65.79;101668.09;115798;1208;62691;-77
2021/04/26 02:46:24;;;;;;;4.43;1.20;;;;;;;-1.24;65.47;101652.47;115832;1209;62373;-77
2021/04/26 02:48:52;;;;;;;3.40;1.03;;;;;;;-1.26;65.73;101661.28;115740;1209;62506;-77
2021/04/26 02:51:20;;;;;;;3.10;1.87;;;;;;;-1.29;66.19;101654.47;115745;1210;62658;-77
2021/04/26 02:53:49;;;;;;;3.00;1.20;;;;;;;-1.31;66.25;101651.09;115793;1209;62559;-76
2021/04/26 02:56:17;;;;;;;1.90;0.70;;;;;;;-1.30;66.65;101649.33;115797;1209;62466;-77
2021/04/26 02:58:46;;;;;;;4.00;1.10;;;;;;;-1.34;66.14;101648.66;115755;1209;62930;-77
2021/04/26 03:01:14;;;;;;;1.30;0.90;;;;;;;-1.33;65.95;101641.68;115798;1209;62896;-77
2021/04/26 03:03:43;;;;;;;3.00;1.15;;;;;;;-1.37;66.60;101643.58;115774;1209;62289;-76
2021/04/26 03:06:11;;;;;;;2.30;0.87;;;;;;;-1.39;66.60;101640.21;115792;1209;62156;-76
2021/04/26 03:08:39;;;;;;;1.70;0.80;;;;;;;-1.40;66.77;101640.27;115787;1209;62379;-76
2021/04/26 03:11:10;;;;;;;2.90;1.10;;;;;;;-1.42;66.48;101635.17;115846;1209;62795;-77
2021/04/26 03:13:38;;;;;;;3.23;1.00;;;;;;;-1.45;66.63;101645.70;115842;1211;62318;-76
2021/04/26 03:16:05;;;;;;;4.40;1.07;;;;;;;-1.44;67.25;101623.98;115759;1209;62433;-76
2021/04/26 03:18:34;;;;;;;3.50;1.15;;;;;;;-1.44;67.11;101631.80;115757;1209;62303;-76
2021/04/26 03:21:03;;;;;;;4.80;1.30;;;;;;;-1.45;67.30;101624.89;115799;1212;62862;-76
2021/04/26 03:23:30;;;;;;;2.00;0.90;;;;;;;-1.49;67.09;101620.75;115807;1209;62421;-77
2021/04/26 03:25:58;;;;;;;1.80;1.00;;;;;;;-1.53;67.31;101617.47;115722;1209;62406;-76
2021/04/26 03:28:27;;;;;;;1.70;0.93;;;;;;;-1.57;67.67;101615.94;115761;1210;62715;-77
2021/04/26 03:30:58;;;;;;;3.03;1.17;;;;;;;-1.60;67.52;101615.23;115806;1209;62445;-76
2021/04/26 03:33:25;;;;;;;2.17;0.77;;;;;;;-1.62;67.78;101615.30;115735;1212;63019;-77
2021/04/26 03:35:54;;;;;;;2.90;0.87;;;;;;;-1.66;67.53;101617.22;115797;1209;63243;-77
2021/04/26 03:38:21;;;;;;;5.30;0.97;;;;;;;-1.71;68.04;101618.34;115786;1209;62413;-77
2021/04/26 03:40:48;;;;;;;2.00;1.07;;;;;;;-1.76;68.21;101610.77;115756;1209;62537;-77
2021/04/26 03:43:16;;;;;;;3.37;0.87;;;;;;;-1.79;68.60;101608.30;115827;1209;62404;-76
2021/04/26 03:45:45;;;;;;;4.17;1.17;;;;;;;-1.80;68.50;101611.83;115829;1209;63371;-78
2021/04/26 03:48:11;;;;;;;1.97;0.87;;;;;;;-1.82;68.60;101608.45;115746;1209;62642;-77
2021/04/26 03:50:38;;;;;;;2.05;0.90;;;;;;;-1.80;69.29;101610.98;115800;1209;62182;-77
2021/04/26 03:53:04;;;;;;;2.23;0.83;;;;;;;-1.83;69.07;101609.34;115808;1209;62737;-77
2021/04/26 03:55:31;;;;;;;2.47;1.23;;;;;;;-1.82;69.18;101611.05;115769;1209;62161;-77
2021/04/26 03:57:58;;;;;;;2.20;0.97;;;;;;;-1.80;68.96;101603.19;115845;1209;62288;-77
2021/04/26 04:00:24;;;;;;;2.23;1.33;;;;;;;-1.78;69.00;101615.20;115746;1209;62177;-77
2021/04/26 04:02:51;;;;;;;2.30;1.30;;;;;;;-1.76;69.54;101610.77;115793;1209;62294;-77
2021/04/26 04:05:19;;;;;;;1.50;0.80;;;;;;;-1.74;69.98;101603.73;115808;1208;62467;-77
2021/04/26 04:07:46;;;;;;;4.73;1.50;;;;;;;-1.72;69.71;101601.91;115773;1209;62470;-77
2021/04/26 04:10:15;;;;;;;2.43;1.10;;;;;;;-1.73;69.96;101608.00;115807;1209;64184;-77
2021/04/26 04:12:41;;;;;;;3.00;1.10;;;;;;;-1.74;69.52;101611.54;115773;1209;62636;-77
2021/04/26 04:15:10;;;;;;;4.23;1.40;;;;;;;-1.73;69.46;101604.56;115792;1209;62334;-77
2021/04/26 04:17:38;;;;;;;6.35;1.60;;;;;;;-1.72;69.55;101607.11;115775;1209;62591;-77
2021/04/26 04:20:07;;;;;;;5.15;1.85;;;;;;;-1.69;69.04;101606.95;115815;1209;62222;-77
2021/04/26 04:22:34;;;;;;;6.95;1.45;;;;;;;-1.66;68.91;101599.02;115993;1209;62770;-77
2021/04/26 04:25:00;;;;;;;4.33;1.40;;;;;;;-1.63;68.89;101600.62;115734;1209;62934;-77
2021/04/26 04:27:27;;;;;;;2.55;1.45;;;;;;;-1.60;68.97;101610.03;115815;1209;62228;-79
2021/04/26 04:29:54;;;;;;;2.75;1.70;;;;;;;-1.60;69.20;101602.22;115776;1209;62455;-78
2021/04/26 04:32:23;;;;;;;5.30;1.75;;;;;;;-1.58;69.28;101601.22;115805;1209;62233;-79
2021/04/26 04:34:50;;;;;;;3.55;1.80;;;;;;;-1.55;69.08;101600.23;115807;1209;62219;-79
2021/04/26 04:37:17;;;;;;;5.60;2.10;;;;;;;-1.53;68.85;101603.59;115772;1209;62357;-79
2021/04/26 04:39:43;;;;;;;1.80;0.73;;;;;;;-1.53;69.41;101601.00;115761;1209;62239;-78
2021/04/26 04:42:10;;;;;;;3.00;1.27;;;;;;;-1.52;69.76;101597.49;115755;1209;62198;-78
2021/04/26 04:44:36;;;;;;;3.40;0.93;;;;;;;-1.50;69.23;101600.86;115808;1209;62711;-78
2021/04/26 04:47:03;;;;;;;3.20;1.10;;;;;;;-1.50;69.57;101601.70;115769;1209;62622;-78
2021/04/26 04:49:30;;;;;;;3.10;1.27;;;;;;;-1.52;69.95;101607.91;115736;1209;62559;-78
2021/04/26 04:51:56;;;;;;;2.60;1.50;;;;;;;-1.50;69.66;101606.06;115757;1209;62320;-79
2021/04/26 04:54:23;;;;;;;3.13;1.10;;;;;;;-1.49;69.75;101603.40;115731;1209;62428;-77
2021/04/26 04:56:53;;;;;;;7.53;1.93;;;;;;;-1.41;70.50;101600.41;115870;1209;63123;-78
2021/04/26 04:59:20;;;;;;;3.95;1.30;;;;;;;-1.36;70.55;101605.38;115815;1209;62343;-78
2021/04/26 05:01:48;;;;;;;3.70;1.53;;;;;;;-1.27;70.72;101613.59;115799;1209;62233;-79
2021/04/26 05:04:15;;;;;;;3.87;1.40;;;;;;;-1.19;70.68;101605.41;115811;1209;62312;-79
2021/04/26 05:06:42;;;;;;;3.60;1.50;;;;;;;-1.09;70.20;101613.58;115772;1209;62319;-78
2021/04/26 05:09:08;;;;;;;3.25;1.55;;;;;;;-1.01;69.90;101611.44;115850;1209;62531;-76
2021/04/26 05:11:36;;;;;;;3.73;1.20;;;;;;;-0.90;69.70;101611.73;115782;1209;63465;-77
2021/04/26 05:14:02;;;;;;;4.30;1.60;;;;;;;-0.76;69.98;101610.20;115791;1209;63258;-75
2021/04/26 05:16:31;;;;;;;3.00;1.27;;;;;;;-0.63;69.23;101606.86;115862;1209;62402;-78
2021/04/26 05:19:00;;;;;;;4.65;1.15;;;;;;;-0.47;68.90;101609.52;115796;1209;62550;-78
2021/04/26 05:21:27;;;;;;;3.80;1.37;;;;;;;-0.31;68.39;101609.53;115867;1209;63176;-80
2021/04/26 05:23:55;;;;;;;3.60;1.37;;;;;;;-0.16;67.32;101599.21;115826;1209;64386;-80
2021/04/26 05:26:25;;;;;;;5.30;1.60;;;;;;;0.01;67.72;101595.68;115861;1209;62471;-80
2021/04/26 05:28:52;;;;;;;2.85;1.35;;;;;;;0.15;66.62;101595.73;115907;1209;61700;-80
2021/04/26 05:31:20;;;;;;;7.90;1.20;;;;;;;0.29;66.09;101587.98;115867;1209;62273;-80
2021/04/26 05:33:47;;;;;;;5.70;1.00;;;;;;;0.42;65.48;101590.73;115865;1209;63042;-81
2021/04/26 05:36:19;;;;;;;2.90;0.90;;;;;;;0.52;64.58;101584.07;115913;1209;62279;-81
2021/04/26 05:39:04;;;;;;;2.30;1.10;;;;;;;0.63;64.19;101590.45;115782;1211;63315;-81
2021/04/26 05:41:31;;;;;;;2.93;1.47;;;;;;;0.74;63.50;101599.33;115602;1212;62342;-80
2021/04/26 05:43:57;;;;;;;2.73;1.13;;;;;;;0.87;63.09;101590.78;115779;1212;62275;-79
2021/04/26 05:46:24;;;;;;;5.27;1.37;;;;;;;1.01;63.51;101590.81;115604;1212;62658;-79
2021/04/26 05:48:51;;;;;;;4.35;1.20;;;;;;;1.14;62.90;101586.53;115606;1212;62966;-78
2021/04/26 05:51:17;;;;;;;2.10;1.25;;;;;;;1.29;62.12;101589.16;115726;1212;62789;-78
2021/04/26 05:53:44;;;;;;;3.63;0.90;;;;;;;1.38;61.73;101589.46;115569;1211;62397;-79
2021/04/26 05:56:10;;;;;;;2.40;1.00;;;;;;;1.48;61.06;101584.49;115523;1212;62692;-79
2021/04/26 05:58:37;;;;;;;2.07;0.73;;;;;;;1.58;60.96;101577.77;115596;1212;62330;-79
2021/04/26 06:01:04;;;;;;;1.40;0.80;;;;;;;1.71;60.57;101579.63;115556;1212;62851;-79
2021/04/26 06:03:31;;;;;;;3.00;1.40;;;;;;;1.85;60.55;101574.38;115825;1209;62551;-79
2021/04/26 06:05:57;;;;;;;4.35;1.20;;;;;;;2.01;59.96;101582.08;115813;1209;62315;-81
2021/04/26 06:08:25;;;;;;;2.13;1.20;;;;;;;2.13;59.77;101576.07;115830;1209;62647;-76
2021/04/26 06:10:52;;;;;;;2.10;1.20;;;;;;;2.23;59.11;101573.69;115812;1209;62147;-78
2021/04/26 06:13:18;;;;;;;6.15;1.20;;;;;;;2.35;59.19;101574.67;115832;1209;62356;-78
2021/04/26 06:15:45;;;;;;;2.35;1.15;;;;;;;2.50;59.29;101573.67;115864;1209;62270;-77
2021/04/26 06:18:13;;;;;;;3.27;1.10;;;;;;;2.69;59.25;101573.29;115871;1209;62152;-77
2021/04/26 06:20:41;;;;;;;1.70;0.90;;;;;;;2.81;59.33;101569.86;115840;1209;62919;-77
2021/04/26 06:23:09;;;;;;;1.93;0.73;;;;;;;2.97;59.31;101574.06;115879;1209;62247;-76
2021/04/26 06:25:37;;;;;;;2.40;1.03;;;;;;;3.10;58.79;101572.27;115826;1209;63616;-76
2021/04/26 06:28:04;;;;;;;2.40;1.60;;;;;;;3.25;58.61;101571.25;115853;1209;62627;-78
2021/04/26 06:30:31;;;;;;;1.60;0.90;;;;;;;3.43;58.28;101570.91;115870;1209;62347;-75
2021/04/26 06:32:58;;;;;;;3.30;0.93;;;;;;;3.52;56.91;101566.80;115844;1209;62300;-77
2021/04/26 06:35:25;;;;;;;1.73;0.70;;;;;;;3.61;56.23;101572.25;115849;1209;62350;-77
2021/04/26 06:37:53;;;;;;;2.60;1.23;;;;;;;3.71;55.27;101566.34;115868;1209;62998;-77
2021/04/26 06:40:20;;;;;;;1.70;0.70;;;;;;;3.84;53.83;101567.14;115840;1209;62398;-77
2021/04/26 06:42:46;;;;;;;1.43;0.50;;;;;;;3.96;54.21;101568.89;115922;1209;62353;-77
2021/04/26 06:45:21;;;;;;;1.47;0.60;;;;;;;4.11;54.61;101568.73;115803;1209;62566;-76
2021/04/26 06:47:49;;;;;;;1.80;0.73;;;;;;;4.23;54.16;101565.20;115915;1209;62390;-77
2021/04/26 06:50:18;;;;;;;1.05;0.50;;;;;;;4.36;53.79;101568.63;115854;1209;62952;-77
2021/04/26 06:52:46;;;;;;;1.50;0.65;;;;;;;4.50;52.30;101572.84;115813;1209;62416;-76
2021/04/26 06:55:13;;;;;;;3.67;1.00;;;;;;;4.62;51.62;101565.84;115899;1209;62217;-77
2021/04/26 06:57:43;;;;;;;1.35;0.55;;;;;;;4.77;51.42;101571.74;115853;1209;62093;-77
2021/04/26 07:00:11;;;;;;;1.50;0.67;;;;;;;4.91;50.86;101574.17;115834;1209;61953;-77
2021/04/26 07:02:38;;;;;;;1.77;0.80;;;;;;;5.00;50.36;101572.63;115819;1209;62906;-78
2021/04/26 07:05:07;;;;;;;1.90;0.80;;;;;;;5.14;50.46;101572.39;115869;1209;62511;-77
2021/04/26 07:07:34;;;;;;;3.90;0.73;;;;;;;5.26;47.97;101567.99;115910;1209;62220;-77
2021/04/26 07:10:01;;;;;;;2.00;0.70;;;;;;;5.36;47.47;101562.87;115887;1209;62164;-77
2021/04/26 07:12:28;;;;;;;2.95;0.85;;;;;;;5.45;45.78;101562.14;115913;1209;61750;-77
2021/04/26 07:14:55;;;;;;;2.80;0.67;;;;;;;5.56;46.69;101567.38;115840;1209;63928;-79
2021/04/26 07:17:23;;;;;;;2.10;0.80;;;;;;;5.68;44.15;101560.33;115857;1208;62511;-77
2021/04/26 07:19:51;;;;;;;1.40;0.83;;;;;;;5.78;44.60;101557.78;115842;1208;62579;-77
2021/04/26 07:22:17;;;;;;;2.13;0.70;;;;;;;5.91;45.73;101566.40;115865;1209;62345;-75
2021/04/26 07:24:44;;;;;;;1.53;0.70;;;;;;;6.06;45.74;101562.55;115842;1209;62413;-74
2021/04/26 07:27:11;;;;;;;1.20;0.60;;;;;;;6.17;44.86;101553.78;115842;1209;62984;-75
2021/04/26 07:29:37;;;;;;;1.70;0.90;;;;;;;6.30;44.75;101554.44;115783;1209;62210;-78
2021/04/26 07:32:05;;;;;;;2.83;0.80;;;;;;;6.46;44.84;101555.80;115853;1209;62242;-78
2021/04/26 07:34:31;;;;;;;3.73;0.80;;;;;;;6.62;44.04;101563.30;115867;1209;62191;-78
2021/04/26 07:36:59;;;;;;;1.80;0.70;;;;;;;6.73;43.58;101555.31;115833;1208;62295;-79
2021/04/26 07:39:25;;;;;;;1.33;0.50;;;;;;;6.85;43.66;101559.56;115891;1208;62038;-80
2021/04/26 07:41:52;;;;;;;1.70;1.00;;;;;;;6.96;43.13;101550.73;115841;1209;62376;-76
2021/04/26 07:44:20;;;;;;;0.75;0.40;;;;;;;7.06;41.48;101550.81;115876;1209;62521;-76
2021/04/26 07:46:46;;;;;;;2.43;0.80;;;;;;;7.18;41.63;101554.18;115884;1209;62544;-76
2021/04/26 07:49:13;;;;;;;2.73;0.80;;;;;;;7.26;41.54;101552.55;115847;1209;62531;-76
2021/04/26 07:51:40;;;;;;;2.50;0.75;;;;;;;7.40;41.32;101559.30;115885;1209;62272;-77
2021/04/26 07:54:07;;;;;;;1.07;0.40;;;;;;;7.50;41.13;101556.67;115824;1209;62660;-77
2021/04/26 07:56:34;;;;;;;2.50;1.27;;;;;;;7.64;41.64;101547.56;115832;1209;62315;-76
2021/04/26 07:59:08;;;;;;;2.37;1.07;;;;;;;7.71;40.09;101548.68;115854;1209;62365;-76
2021/04/26 08:01:34;;;;;;;3.00;1.10;;;;;;;7.81;41.05;101551.36;115840;1209;62297;-76
2021/04/26 08:04:03;;;;;;;1.83;1.23;;;;;;;7.96;41.38;101553.45;115866;1209;62154;-77
2021/04/26 08:06:29;;;;;;;2.13;0.93;;;;;;;8.10;40.70;101546.95;115861;1209;62397;-76
2021/04/26 08:08:56;;;;;;;2.43;0.80;;;;;;;8.28;41.50;101543.62;115930;1209;62280;-74
2021/04/26 08:11:22;;;;;;;4.43;1.00;;;;;;;8.38;40.77;101549.74;115857;1209;62772;-77
2021/04/26 08:13:49;;;;;;;2.53;0.90;;;;;;;8.51;40.91;101547.67;115852;1209;62692;-76
2021/04/26 08:16:17;;;;;;;1.87;1.00;;;;;;;8.60;40.86;101539.88;115781;1209;63063;-75
2021/04/26 08:18:44;;;;;;;2.70;1.20;;;;;;;8.71;41.15;101534.42;115788;1209;62531;-76
2021/04/26 08:21:10;;;;;;;1.80;0.70;;;;;;;8.83;39.73;101537.75;115832;1209;62367;-76
2021/04/26 08:23:38;;;;;;;2.23;1.23;;;;;;;8.95;40.38;101541.91;115748;1209;62688;-77
2021/04/26 08:26:06;;;;;;;1.47;0.70;;;;;;;9.03;39.46;101528.80;115839;1209;62186;-76
2021/04/26 08:28:33;;;;;;;1.47;0.80;;;;;;;9.05;39.26;101532.10;115862;1207;62152;-77
2021/04/26 08:31:01;;;;;;;1.83;1.10;;;;;;;9.14;39.32;101531.25;115814;1209;61953;-76
2021/04/26 08:33:28;;;;;;;2.27;0.80;;;;;;;9.26;37.63;101533.71;115877;1209;62747;-75
2021/04/26 08:35:55;;;;;;;1.50;0.80;;;;;;;9.32;36.70;101528.66;115895;1209;62268;-75
2021/04/26 08:38:21;;;;;;;1.60;1.00;;;;;;;9.38;36.55;101530.73;115825;1209;62366;-77
2021/04/26 08:40:48;;;;;;;1.53;0.70;;;;;;;9.52;36.81;101536.51;115815;1209;62509;-75
2021/04/26 08:43:17;;;;;;;2.03;0.80;;;;;;;9.63;35.98;101523.09;115916;1209;62294;-75
2021/04/26 08:45:43;;;;;;;2.00;0.80;;;;;;;9.68;34.55;101531.41;115849;1208;62224;-75
2021/04/26 08:48:13;;;;;;;1.23;0.50;;;;;;;9.80;32.59;101522.28;115821;1209;62431;-74
2021/04/26 08:50:40;;;;;;;1.97;1.67;;;;;;;9.92;33.13;101519.40;115890;1208;62265;-73
2021/04/26 08:53:07;;;;;;;2.60;0.80;;;;;;;9.99;34.80;101520.48;115821;1209;62345;-73
2021/04/26 08:55:34;;;;;;;3.00;1.20;;;;;;;10.07;35.81;101517.89;115864;1209;62477;-73
2021/04/26 08:58:01;;;;;;;2.20;0.90;;;;;;;10.19;34.84;101508.72;115848;1209;63171;-73
2021/04/26 09:00:27;;;;;;;3.10;0.80;;;;;;;10.20;33.42;101507.75;115834;1209;62428;-75
2021/04/26 09:03:00;;;;;;;1.00;0.60;;;;;;;10.27;35.30;101505.32;115844;1209;62416;-77
2021/04/26 09:05:33;;;;;;;2.27;0.90;;;;;;;10.36;34.05;101508.91;115805;1208;62524;-77
2021/04/26 09:08:03;;;;;;;1.70;1.00;;;;;;;10.47;33.70;101503.34;115851;1208;62476;-77
2021/04/26 09:10:50;;;;;;;2.00;1.10;;;;;;;10.57;33.23;101504.09;115847;1209;62986;-75
2021/04/26 09:13:31;;;;;;;1.53;0.77;;;;;;;10.58;32.41;101504.91;115789;1209;61943;-75
2021/04/26 09:16:22;;;;;;;1.03;0.50;;;;;;;10.61;31.88;101500.14;115778;1209;62450;-74
2021/04/26 09:18:53;;;;;;;2.35;0.50;;;;;;;10.66;30.66;101504.15;115882;1209;63162;-76
2021/04/26 09:21:31;;;;;;;2.28;0.50;;;;;;;10.69;31.52;101503.83;115879;1209;62415;-75
2021/04/26 09:24:28;;;;;;;5.70;2.20;;;;;;;10.89;32.53;101502.63;115847;1209;62491;-76
2021/04/26 09:27:01;;;;;;;1.20;0.80;;;;;;;11.07;31.84;101499.07;115885;1209;62349;-75
2021/04/26 09:29:29;;;;;;;1.33;0.70;;;;;;;11.20;31.74;101492.34;115864;1209;64013;-75
2021/04/26 09:32:10;;;;;;;2.23;0.90;;;;;;;11.29;30.77;101489.73;115924;1209;63010;-78
2021/04/26 09:34:53;;;;;;;0.60;0.40;;;;;;;11.41;29.87;101480.45;115846;1209;62333;-74
2021/04/26 09:37:28;;;;;;;6.37;0.70;;;;;;;11.57;30.41;101480.51;115859;1209;62369;-77
2021/04/26 09:40:04;;;;;;;3.07;0.70;;;;;;;11.76;29.65;101483.88;115875;1209;62274;-74
2021/04/26 09:42:48;;;;;;;2.10;0.90;;;;;;;11.97;30.01;101483.45;115871;1209;62366;-75
2021/04/26 09:45:33;;;;;;;1.67;0.80;;;;;;;12.02;29.71;101476.63;115862;1212;62278;-77
2021/04/26 09:48:16;;;;;;;1.30;0.70;;;;;;;11.94;29.29;101486.42;115862;1209;62524;-77
2021/04/26 09:51:01;;;;;;;3.20;0.90;;;;;;;11.94;29.98;101481.10;115848;1209;62354;-77
2021/04/26 09:53:33;;;;;;;1.27;0.60;;;;;;;12.00;29.14;101481.27;115862;1209;62617;-77
2021/04/26 09:56:24;;;;;;;1.70;0.75;;;;;;;12.13;29.63;101475.45;115872;1209;62508;-77
2021/04/26 09:58:53;;;;;;;1.87;0.70;;;;;;;12.36;29.82;101474.80;115857;1209;62405;-76
2021/04/26 10:01:23;;;;;;;1.30;0.50;;;;;;;12.31;29.02;101463.84;115825;1209;62388;-75
2021/04/26 10:03:50;;;;;;;1.55;0.90;;;;;;;12.08;29.07;101456.52;115917;1209;63143;-75
2021/04/26 10:06:21;;;;;;;0.80;0.50;;;;;;;12.11;28.77;101458.84;115868;1209;62462;-75
2021/04/26 10:08:50;;;;;;;2.27;0.83;;;;;;;11.98;28.25;101455.84;115887;1209;62385;-75
2021/04/26 10:11:19;;;;;;;1.80;0.83;;;;;;;12.13;29.09;101446.20;115840;1209;62248;-76
2021/04/26 10:13:48;;;;;;;1.20;0.60;;;;;;;12.27;28.49;101454.53;115832;1207;64090;-75
2021/04/26 10:16:24;;;;;;;1.93;0.90;;;;;;;12.32;29.27;101449.53;115860;1209;62198;-75
2021/04/26 10:18:59;;;;;;;1.27;0.70;;;;;;;12.37;28.94;101449.88;115925;1209;62343;-74
2021/04/26 10:21:26;;;;;;;2.95;0.90;;;;;;;12.38;28.76;101436.38;115838;1208;62676;-77
2021/04/26 10:23:54;;;;;;;3.10;0.80;;;;;;;12.45;30.02;101436.53;115904;1209;62162;-77
2021/04/26 10:26:53;;;;;;;1.50;1.00;;;;;;;12.44;27.72;101432.22;115772;1209;62550;-76
2021/04/26 10:29:27;;;;;;;1.63;0.83;;;;;;;12.76;29.19;101425.16;115827;1209;62350;-78
2021/04/26 10:32:02;;;;;;;0.63;0.47;;;;;;;13.14;29.21;101415.52;115859;1209;62292;-77
2021/04/26 10:34:42;;;;;;;2.43;0.93;;;;;;;13.51;29.16;101410.51;115791;1209;64249;-74
2021/04/26 10:37:16;;;;;;;2.00;0.65;;;;;;;13.75;26.90;101407.68;115878;1209;63487;-75
2021/04/26 10:39:56;;;;;;;2.57;0.90;;;;;;;13.63;26.52;101401.09;115831;1209;62227;-74
2021/04/26 10:42:46;;;;;;;3.03;0.87;;;;;;;13.76;27.08;101406.66;115899;1209;62343;-75
2021/04/26 10:45:19;;;;;;;1.57;0.73;;;;;;;13.86;26.54;101404.59;115821;1208;62368;-75
2021/04/26 10:47:58;;;;;;;2.20;0.80;;;;;;;14.04;25.94;101400.77;115902;1208;62013;-75
2021/04/26 10:50:29;;;;;;;2.43;0.77;;;;;;;14.04;26.72;101396.25;115880;1209;62463;-75
2021/04/26 10:52:59;;;;;;;3.33;0.90;;;;;;;14.17;26.85;101400.97;115839;1209;64473;-75
2021/04/26 10:55:26;;;;;;;1.70;0.83;;;;;;;14.37;26.52;101401.29;115773;1208;62606;-75
2021/04/26 10:57:56;;;;;;;1.67;0.97;;;;;;;14.53;26.54;101397.60;115847;1209;62623;-76
2021/04/26 11:00:26;;;;;;;2.40;1.00;;;;;;;14.74;26.47;101396.89;115856;1209;62303;-77
2021/04/26 11:02:57;;;;;;;1.37;0.90;;;;;;;14.82;24.33;101393.31;115869;1208;63078;-75
2021/04/26 11:05:37;;;;;;;3.57;0.80;;;;;;;14.70;24.67;101389.45;115826;1209;62951;-76
2021/04/26 11:08:15;;;;;;;1.43;0.83;;;;;;;14.63;24.20;101384.84;115826;1209;62276;-76
2021/04/26 11:10:49;;;;;;;2.13;1.00;;;;;;;14.79;25.52;101388.33;115890;1208;62916;-76
2021/04/26 11:13:30;;;;;;;2.13;0.80;;;;;;;15.01;26.25;101379.37;115887;1209;62291;-76
2021/04/26 11:16:07;;;;;;;3.65;1.20;;;;;;;14.97;25.11;101387.95;115577;1209;62392;-77
2021/04/26 11:18:58;;;;;;;1.57;0.87;;;;;;;15.06;24.29;101382.30;115831;1209;64020;-77
2021/04/26 11:21:43;;;;;;;3.67;0.90;;;;;;;15.19;25.04;101375.45;115839;1209;62537;-77
2021/04/26 11:24:10;;;;;;;;;;;;;;;15.16;24.20;101368.64;115927;1216;62254;-78
2021/04/26 11:26:37;;;;;;;2.57;1.00;;;;;;;15.28;25.94;101366.31;115861;1209;62027;-77
2021/04/26 11:29:13;;;;;;;2.90;0.87;;;;;;;15.41;24.77;101355.75;115831;1209;62349;-77
2021/04/26 11:31:40;;;;;;;2.00;0.87;;;;;;;15.48;24.26;101361.98;115857;1209;62407;-78
2021/04/26 11:34:18;;;;;;;1.97;1.30;;;;;;;15.58;24.35;101350.16;115897;1209;62323;-76
2021/04/26 11:37:03;;;;;;;1.47;0.77;;;;;;;15.44;24.11;101341.17;115920;1209;62435;-77